Shiro, Texas
Current Conditions -  °F | °C
As of 6:53 PM on Friday 24 Oct 2014 (Local Time) from KUTS Reporting Station
Clear Clear  
Wind Chill: 73°   Ceiling: Unl
Heat Index: 73°   Visibility: 10mi
Dew Point: 58°   Wind: 0mph
Humidity: 59%   Direction: NA
Pressure: 30.1"   Gusts: NA
Location:  30.61°N, 95.89°W
Report Text: KUTS 242353Z AUTO 00000KT 10SM CLR 23/14 A3010 RMK AO2 SLP191 T02280144 10272 20228 53001
Loading
Personal Weather Stations






























Interactive Weather Map New forecast layout! Learn more

10-Day Weather Forecast

Advertisements
Track Severe Weather on mobile